This is the latest recevied weather packets stored in our database for station/object KB3HHA-13. If no packets are shown the sender has not sent any weather packets the latest 10 day(s).
| Time | Temp. | Humidity | Pressure | Rain* | Wind** | Luminosity | Snow |
|---|---|---|---|---|---|---|---|
| 1777575121 | 18.89° C | 42% | 1008.2 hPa | 0 mm | - | - | - |
| 1777574821 | 18.89° C | 42% | 1008.3 hPa | 0 mm | - | - | - |
| 1777574522 | 18.89° C | 41% | 1008.3 hPa | 0 mm | - | - | - |
| 1777574220 | 19.44° C | 40% | 1008.3 hPa | 0 mm | - | - | - |
| 1777573921 | 19.44° C | 39% | 1008.4 hPa | 0 mm | - | - | - |
| 1777573622 | 20° C | 39% | 1008.3 hPa | 0 mm | - | - | - |
| 1777573321 | 20° C | 40% | 1008.4 hPa | 0 mm | - | - | - |
| 1777573020 | 20° C | 41% | 1008.4 hPa | 0 mm | - | - | - |
| 1777572721 | 20° C | 43% | 1008.3 hPa | 0 mm | - | - | - |
| 1777572421 | 20° C | 42% | 1008.4 hPa | 0 mm | - | - | - |
| 1777572123 | 19.44° C | 44% | 1008.2 hPa | 0 mm | - | - | - |
| 1777571821 | 19.44° C | 42% | 1008.4 hPa | 0 mm | - | - | - |
| 1777571521 | 19.44° C | 41% | 1008.4 hPa | 0 mm | - | - | - |
| 1777571220 | 19.44° C | 42% | 1008.4 hPa | 0 mm | - | - | - |
| 1777570920 | 19.44° C | 42% | 1008.4 hPa | 0 mm | - | - | - |
| 1777570322 | 19.44° C | 42% | 1008.6 hPa | 0 mm | - | - | - |
| 1777570020 | 19.44° C | 46% | 1008.4 hPa | 0 mm | - | - | - |
| 1777569722 | 19.44° C | 44% | 1008.5 hPa | 0 mm | - | - | - |
| 1777569420 | 19.44° C | 44% | 1008.6 hPa | 0 mm | - | - | - |
| 1777569120 | 18.89° C | 47% | 1008.6 hPa | 0 mm | - | - | - |
| 1777568822 | 18.89° C | 47% | 1008.7 hPa | 0 mm | - | - | - |
| 1777568521 | 18.89° C | 47% | 1008.7 hPa | 0 mm | - | - | - |
| 1777568221 | 18.33° C | 50% | 1008.9 hPa | 0 mm | - | - | - |
| 1777567922 | 18.33° C | 50% | 1008.9 hPa | 0 mm | - | - | - |
| 1777567620 | 18.33° C | 50% | 1008.8 hPa | 0 mm | - | - | - |
* Rain latest hour (hover to see other rain measurements)
** Current wind speed in m/s (hover to see current wind gust speed)